Terminal Aerodrome Forecast
Issued by NWS Lake Charles, LA

Home | Current Version | Previous Version | Text Only | Print | Product List | Glossary On
Versions: 1 2 3 4 5 6 7 8 9 10 11 12 13 14 15 16 17 18
000
FTUS44 KLCH 231131
TAFLCH
TAF
KLCH 231131Z 2312/2412 09006KT P6SM SCT025 BKN200
     FM231500 14010KT P6SM VCTS BKN050CB
      TEMPO 2318/2322 VRB12G20KT 3SM -TSRA SCT025 BKN035CB
     FM240100 15007KT P6SM SCT035 BKN150
     FM240900 13008KT P6SM VCSH BKN025=

USA.gov is the U.S. government's official web portal to all federal, state and local government web resources and services.